Avioradar koristi kolačiće da bi Vam omogućio jednostavnije i ugodnije korištenje stranice. 

AVIORADAR - Hrvatski zrakoplovni portal

METAR i TAF za zračne luke u Hrvatskoj

[Source: ADDS]
METAR
LDZA 182130Z 25004KT 9999 -RA FEW003 03/02 Q1022 TEMPO BKN010 =
LDZA 181725Z 1818/1918 03005KT 9999 SCT030 TX08/1913Z TN03/1900Z PROB40 TEMPO 1818/1909 RA BKN010 OVC030 BECMG 1906/1908 03008KT PROB30 TEMPO 1909/1918 SHRA FEW025TCU BKN035 LDSP 182130Z AUTO 10009KT 9999 BKN032/// OVC036/// 14/10 Q1015 =
LDSP 181725Z 1818/1918 11012KT 9999 BKN030 TX14/1818Z TN12/1901Z PROB40 TEMPO 1821/1909 4000 TSRA FEW020CB BKN025 BECMG 1908/1910 22008KT BECMG 1915/1917 05010KT LDDU 182130Z 12015KT 9999 FEW052 12/08 Q1016 =
LDDU 181725Z 1818/1918 11010KT 9999 SCT025 TX16/1912Z TN12/1905Z PROB30 TEMPO 1902/1910 4000 SHRA SCT020TCU BKN025 BECMG 1910/1912 17008KT LDPL 182130Z 08020G30KT 9999 BKN058 07/03 Q1017 NOSIG =
LDPL 181725Z 1818/1918 06015KT 9999 BKN030 TX09/1912Z TN04/1900Z TEMPO 1818/1912 06018G30KT PROB30 TEMPO 1818/1909 RA LDZD 182130Z 05009KT 360V100 9999 -RA FEW020 BKN030 08/05 Q1015 TEMPO 06015G25KT 7000 RA =
LDZD 181725Z 1818/1918 06012KT 9999 SCT025 TX10/1818Z TN06/1904Z TEMPO 1818/1912 RA PROB40 TEMPO 1818/1910 06015G25KT SHRA FEW025TCU BKN033 LDRI 182130Z 08016G33KT 030V120 9999 -RA BKN040 08/M02 Q1018 =
LDRI 181725Z 1818/1918 06015KT 9999 BKN030 TX09/1912Z TN05/1900Z TEMPO 1818/1918 06015G30KT PROB30 TEMPO 1818/1902 RA PROB40 TEMPO 1903/1912 06020G40KT LDOS 182130Z 31011KT CAVOK 07/M00 Q1021 =
LDOS 181725Z 1818/1918 35007KT 9999 SCT040 TX10/1912Z TN05/1905Z TEMPO 1818/1918 35013KT
TAF
LDZA 181725Z 1818/1918 03005KT 9999 SCT030 TX08/1913Z TN03/1900Z PROB40 TEMPO 1818/1909 RA BKN010 OVC030 BECMG 1906/1908 03008KT PROB30 TEMPO 1909/1918 SHRA FEW025TCU BKN035 =
LDSP 181725Z 1818/1918 11012KT 9999 BKN030 TX14/1818Z TN12/1901Z PROB40 TEMPO 1821/1909 4000 TSRA FEW020CB BKN025 BECMG 1908/1910 22008KT BECMG 1915/1917 05010KT =
LDDU 181725Z 1818/1918 11010KT 9999 SCT025 TX16/1912Z TN12/1905Z PROB30 TEMPO 1902/1910 4000 SHRA SCT020TCU BKN025 BECMG 1910/1912 17008KT =
LDPL 181725Z 1818/1918 06015KT 9999 BKN030 TX09/1912Z TN04/1900Z TEMPO 1818/1912 06018G30KT PROB30 TEMPO 1818/1909 RA =
LDZD 181725Z 1818/1918 06012KT 9999 SCT025 TX10/1818Z TN06/1904Z TEMPO 1818/1912 RA PROB40 TEMPO 1818/1910 06015G25KT SHRA FEW025TCU BKN033 =
LDRI 181725Z 1818/1918 06015KT 9999 BKN030 TX09/1912Z TN05/1900Z TEMPO 1818/1918 06015G30KT PROB30 TEMPO 1818/1902 RA PROB40 TEMPO 1903/1912 06020G40KT =
LDOS 181725Z 1818/1918 35007KT 9999 SCT040 TX10/1912Z TN05/1905Z TEMPO 1818/1918 35013KT =
SR / SS: 05:02 / 17:05 UTC (Zagreb 2019-03-18)